Time;durP1;ratioP1;P1;durP2;ratioP2;P2;SDS_P1;SDS_P2;PMS_P1;PMS_P2;Temp;Humidity;BMP_temperature;BMP_pressure;BME280_temperature;BME280_humidity;BME280_pressure;Samples;Min_cycle;Max_cycle;Signal;HPM_P1;HPM_P2
2022/01/12 00:01:31;;;;;;;52.83;13.35;;;;;;;4.37;100.00;102627.91;4937959;29;20400;-81
2022/01/12 00:03:57;;;;;;;58.30;14.43;;;;;;;4.36;100.00;102620.81;4936991;28;20035;-81
2022/01/12 00:06:24;;;;;;;47.67;14.82;;;;;;;4.36;100.00;102620.81;4922006;29;20019;-82
2022/01/12 00:08:49;;;;;;;51.05;13.65;;;;;;;4.36;100.00;102636.19;4954162;28;20067;-81
2022/01/12 00:11:15;;;;;;;55.10;15.13;;;;;;;4.36;100.00;102636.19;4937117;28;20031;-82
2022/01/12 00:13:40;;;;;;;49.35;12.75;;;;;;;4.35;100.00;102646.16;4950637;28;20031;-82
2022/01/12 00:16:05;;;;;;;52.92;16.08;;;;;;;4.33;100.00;102642.78;4954713;28;20078;-81
2022/01/12 00:18:31;;;;;;;59.13;14.68;;;;;;;4.31;100.00;102644.88;4936897;29;20385;-81
2022/01/12 00:20:57;;;;;;;55.70;14.18;;;;;;;4.30;100.00;102635.06;4921961;29;20469;-81
2022/01/12 00:23:22;;;;;;;54.85;14.55;;;;;;;4.29;100.00;102635.28;4946108;28;20173;-83
2022/01/12 00:34:01;;;;;;;75.35;17.13;;;;;;;4.25;100.00;102661.78;4943969;28;20034;-81
2022/01/12 00:36:27;;;;;;;78.28;16.25;;;;;;;4.21;100.00;102660.50;4937470;28;20027;-81
2022/01/12 00:38:53;;;;;;;91.57;17.58;;;;;;;4.18;100.00;102677.06;4936733;29;20117;-81
2022/01/12 00:41:18;;;;;;;90.07;19.33;;;;;;;4.17;100.00;102686.16;4937118;29;20026;-81
2022/01/12 00:43:46;;;;;;;98.63;18.65;;;;;;;4.16;100.00;102687.22;4935087;29;20038;-81
2022/01/12 00:46:13;;;;;;;145.55;20.40;;;;;;;4.12;100.00;102700.25;4954551;28;20078;-81
2022/01/12 00:48:38;;;;;;;132.30;19.70;;;;;;;4.09;100.00;102705.16;4936404;28;20031;-81
2022/01/12 00:51:06;;;;;;;79.00;15.55;;;;;;;4.03;100.00;102704.03;4954457;28;20528;-81
2022/01/12 00:53:31;;;;;;;63.67;15.13;;;;;;;3.96;100.00;102712.03;4936484;28;20084;-81
2022/01/12 00:55:56;;;;;;;50.95;12.00;;;;;;;3.88;100.00;102717.50;4954762;28;20020;-81
2022/01/12 00:58:22;;;;;;;126.72;17.50;;;;;;;3.82;100.00;102720.94;4936324;29;20027;-81
2022/01/12 01:00:47;;;;;;;331.95;34.58;;;;;;;3.78;100.00;102733.09;4936910;29;20051;-81
2022/01/12 01:03:13;;;;;;;354.83;34.85;;;;;;;3.70;100.00;102722.34;4953678;28;20556;-81
2022/01/12 01:05:38;;;;;;;424.60;44.45;;;;;;;3.64;100.00;102723.09;4939110;28;20023;-81
2022/01/12 01:08:04;;;;;;;547.15;59.85;;;;;;;3.58;100.00;102718.41;4937225;29;20031;-81
2022/01/12 01:10:51;;;;;;;486.20;53.38;;;;;;;3.56;100.00;102732.91;4949967;28;20023;-81
2022/01/12 01:13:20;;;;;;;417.20;39.28;;;;;;;3.54;100.00;102740.31;4927279;29;20053;-81
2022/01/12 01:26:26;;;;;;;487.20;49.28;;;;;;;3.35;100.00;102762.34;4957890;28;20404;-81
2022/01/12 01:28:51;;;;;;;524.70;48.75;;;;;;;3.32;100.00;102758.16;4939980;29;20031;-81
2022/01/12 01:31:20;;;;;;;533.72;56.63;;;;;;;3.30;100.00;102768.31;4958172;28;20027;-81
2022/01/12 01:33:47;;;;;;;480.92;50.90;;;;;;;3.30;100.00;102760.22;4947522;28;20114;-82
2022/01/12 01:36:15;;;;;;;236.35;24.23;;;;;;;3.35;100.00;102746.19;4940540;29;20023;-80
2022/01/12 01:38:41;;;;;;;96.63;13.32;;;;;;;3.35;100.00;102740.78;4924541;29;20039;-79
2022/01/12 01:41:07;;;;;;;50.20;11.52;;;;;;;3.34;100.00;102733.72;4957900;28;20039;-80
2022/01/12 01:54:13;;;;;;;27.95;7.05;;;;;;;3.27;100.00;102721.97;4950065;28;20070;-80
2022/01/12 01:56:38;;;;;;;41.33;7.57;;;;;;;3.31;100.00;102734.09;4957743;28;20204;-80
2022/01/12 01:59:03;;;;;;;24.33;6.47;;;;;;;3.33;100.00;102724.81;4956462;28;20053;-80
2022/01/12 02:01:29;;;;;;;35.53;6.50;;;;;;;3.34;100.00;102723.78;4957419;28;20049;-80
2022/01/12 02:03:55;;;;;;;32.60;6.03;;;;;;;3.35;100.00;102719.22;4956581;28;20086;-80
2022/01/12 02:06:20;;;;;;;28.15;6.88;;;;;;;3.33;100.00;102708.63;4940280;29;20457;-80
2022/01/12 02:08:46;;;;;;;30.65;6.85;;;;;;;3.36;100.00;102720.91;4923589;29;20049;-80
2022/01/12 02:11:12;;;;;;;29.65;5.78;;;;;;;3.36;100.00;102715.53;4957050;28;20031;-80
2022/01/12 02:13:38;;;;;;;24.08;5.28;;;;;;;3.39;100.00;102709.78;4956243;28;20027;-80
2022/01/12 02:16:03;;;;;;;27.38;5.68;;;;;;;3.40;100.00;102711.44;4956040;28;20473;-80
2022/01/12 02:35:17;;;;;;;19.95;5.55;;;;;;;3.42;100.00;102714.81;4955995;28;20058;-80
2022/01/12 02:40:25;;;;;;;23.83;4.72;;;;;;;3.45;100.00;102714.44;4941866;28;20031;-80
2022/01/12 02:53:47;;;;;;;34.83;6.03;;;;;;;3.49;100.00;102710.38;4955771;28;20399;-80
2022/01/12 02:56:18;;;;;;;31.10;6.35;;;;;;;3.49;100.00;102710.38;4956420;28;20027;-80
2022/01/12 02:58:44;;;;;;;25.15;4.95;;;;;;;3.51;100.00;102716.41;4937934;28;20496;-80
2022/01/12 03:03:54;;;;;;;27.67;4.93;;;;;;;3.53;100.00;102717.09;4922624;28;20161;-82
2022/01/12 03:06:24;;;;;;;29.75;5.28;;;;;;;3.55;100.00;102723.16;4924337;29;20261;-81
2022/01/12 03:08:53;;;;;;;32.75;5.22;;;;;;;3.54;100.00;102717.91;4923893;29;20110;-80
2022/01/12 03:11:21;;;;;;;30.08;4.88;;;;;;;3.53;100.00;102711.69;4938798;29;20023;-81
2022/01/12 03:13:48;;;;;;;30.23;4.85;;;;;;;3.54;100.00;102710.66;4938351;29;20027;-81
2022/01/12 03:16:18;;;;;;;20.40;4.57;;;;;;;3.55;100.00;102704.25;4938617;28;20396;-81
2022/01/12 03:18:45;;;;;;;25.02;4.95;;;;;;;3.55;100.00;102698.88;4935884;29;20055;-80
2022/01/12 03:21:11;;;;;;;24.50;4.97;;;;;;;3.55;100.00;102698.88;4914859;29;20087;-80
2022/01/12 03:23:38;;;;;;;38.30;5.78;;;;;;;3.54;100.00;102705.25;4954159;28;20082;-80
2022/01/12 03:26:04;;;;;;;32.85;7.57;;;;;;;3.53;100.00;102706.28;4937099;29;20027;-81
2022/01/12 03:28:30;;;;;;;32.53;5.43;;;;;;;3.52;100.00;102710.03;4920342;29;20024;-81
2022/01/12 03:31:05;;;;;;;25.40;5.50;;;;;;;3.51;100.00;102713.72;4938694;29;20035;-81
2022/01/12 03:33:53;;;;;;;27.95;4.53;;;;;;;3.50;100.00;102720.13;4936320;29;20047;-81
2022/01/12 03:38:47;;;;;;;24.80;5.65;;;;;;;3.51;100.00;102721.81;4943532;28;20027;-80
2022/01/12 03:41:13;;;;;;;32.65;6.22;;;;;;;3.51;100.00;102731.75;4931156;29;20039;-80
2022/01/12 03:43:38;;;;;;;34.35;5.88;;;;;;;3.50;100.00;102728.22;4936511;29;20032;-81
2022/01/12 03:46:04;;;;;;;39.70;7.43;;;;;;;3.49;100.00;102718.47;4936713;29;20361;-80
2022/01/12 03:48:29;;;;;;;24.95;5.03;;;;;;;3.49;100.00;102709.53;4936634;28;20078;-80
2022/01/12 03:50:56;;;;;;;24.05;5.25;;;;;;;3.48;100.00;102703.28;4954550;28;20035;-81
2022/01/12 03:53:22;;;;;;;26.55;5.72;;;;;;;3.48;100.00;102700.59;4937909;29;20042;-81
2022/01/12 03:55:47;;;;;;;26.92;5.68;;;;;;;3.46;100.00;102694.53;4955015;28;20031;-80
2022/01/12 03:58:13;;;;;;;37.58;6.07;;;;;;;3.46;100.00;102694.53;4938029;29;20027;-80
2022/01/12 04:00:38;;;;;;;30.58;5.78;;;;;;;3.46;100.00;102691.84;4937019;29;20040;-80
2022/01/12 04:03:06;;;;;;;25.67;4.93;;;;;;;3.47;100.00;102701.63;4938062;29;20099;-80
2022/01/12 04:08:20;;;;;;;33.88;5.63;;;;;;;3.48;100.00;102708.69;4955295;28;20020;-80
2022/01/12 04:10:56;;;;;;;31.00;4.85;;;;;;;3.51;100.00;102723.66;4954326;28;20035;-80
2022/01/12 04:13:24;;;;;;;29.88;4.90;;;;;;;3.52;100.00;102725.38;4955126;28;20493;-80
2022/01/12 04:15:51;;;;;;;36.97;5.60;;;;;;;3.56;100.00;102723.97;4936633;29;20027;-80
2022/01/12 04:18:17;;;;;;;27.73;4.28;;;;;;;3.57;100.00;102712.16;4955071;28;20029;-81
2022/01/12 04:20:46;;;;;;;27.25;5.55;;;;;;;3.56;100.00;102719.41;4921155;29;20039;-81
2022/01/12 04:23:17;;;;;;;32.50;5.78;;;;;;;3.58;100.00;102727.34;4953813;28;20023;-80
2022/01/12 04:25:47;;;;;;;28.35;5.15;;;;;;;3.58;100.00;102721.13;4937439;29;20028;-80
2022/01/12 04:28:13;;;;;;;40.28;6.28;;;;;;;3.61;100.00;102718.06;4954506;28;20061;-81
2022/01/12 04:30:38;;;;;;;30.40;6.05;;;;;;;3.62;100.00;102715.16;4936814;29;20031;-80
2022/01/12 04:33:05;;;;;;;23.77;4.85;;;;;;;3.63;100.00;102721.38;4937332;28;20030;-80
2022/01/12 04:35:54;;;;;;;29.60;5.78;;;;;;;3.64;100.00;102723.09;4926311;29;20397;-81
2022/01/12 04:38:21;;;;;;;32.05;7.63;;;;;;;3.67;100.00;102722.72;4921677;28;20058;-81
2022/01/12 04:40:47;;;;;;;32.35;7.28;;;;;;;3.67;100.00;102723.56;4936618;29;20488;-83
2022/01/12 04:43:12;;;;;;;39.97;6.55;;;;;;;3.68;100.00;102725.25;4921775;29;20071;-81
2022/01/12 04:50:41;;;;;;;39.30;7.82;;;;;;;3.63;100.00;102716.84;4953783;28;20038;-81
2022/01/12 04:53:06;;;;;;;39.65;7.13;;;;;;;3.65;100.00;102700.47;4953775;28;20488;-82
2022/01/12 04:55:33;;;;;;;39.97;7.28;;;;;;;3.67;100.00;102709.22;4937283;29;20023;-81
2022/01/12 04:58:00;;;;;;;315.65;33.38;;;;;;;3.68;100.00;102710.91;4953543;28;20477;-82
2022/01/12 05:00:26;;;;;;;405.77;35.03;;;;;;;3.65;100.00;102711.25;4936841;28;20122;-82
2022/01/12 05:13:38;;;;;;;377.45;36.47;;;;;;;3.60;100.00;102697.47;4953170;29;20441;-80
2022/01/12 05:16:04;;;;;;;313.70;29.15;;;;;;;3.61;100.00;102696.47;4954077;28;20031;-81
2022/01/12 05:18:30;;;;;;;342.05;33.90;;;;;;;3.61;100.00;102704.56;4918367;29;20035;-81
2022/01/12 05:20:56;;;;;;;295.90;28.25;;;;;;;3.60;100.00;102694.78;4952180;28;20070;-80
2022/01/12 05:23:21;;;;;;;287.77;27.17;;;;;;;3.60;100.00;102686.69;4935488;29;20027;-80
2022/01/12 05:25:46;;;;;;;273.27;24.95;;;;;;;3.60;100.00;102694.78;4921383;29;20059;-80
2022/01/12 05:28:13;;;;;;;235.68;22.73;;;;;;;3.56;100.00;102684.34;4920573;28;20038;-80
2022/01/12 05:30:39;;;;;;;269.42;28.55;;;;;;;3.53;100.00;102684.72;4937100;29;20023;-80
2022/01/12 05:33:04;;;;;;;284.25;28.05;;;;;;;3.52;100.00;102688.44;4953423;28;20496;-80
2022/01/12 05:35:33;;;;;;;207.68;20.50;;;;;;;3.50;100.00;102693.19;4954181;28;20037;-80
2022/01/12 05:37:59;;;;;;;239.68;23.48;;;;;;;3.50;100.00;102698.56;4920814;29;20031;-81
2022/01/12 05:40:24;;;;;;;257.88;25.63;;;;;;;3.53;100.00;102700.91;4937170;29;20050;-81
2022/01/12 05:42:51;;;;;;;268.65;25.05;;;;;;;3.53;100.00;102700.91;4953209;29;20027;-81
2022/01/12 05:45:18;;;;;;;269.70;27.77;;;;;;;3.56;100.00;102702.41;4937102;29;20520;-81
2022/01/12 05:50:10;;;;;;;330.13;31.90;;;;;;;3.56;100.00;102691.63;4949895;28;20034;-81
2022/01/12 05:52:35;;;;;;;302.02;27.48;;;;;;;3.54;100.00;102681.00;4956648;29;20043;-80
2022/01/12 05:55:02;;;;;;;269.60;26.73;;;;;;;3.54;100.00;102697.19;4956690;28;20035;-81
2022/01/12 05:57:29;;;;;;;310.63;29.92;;;;;;;3.55;100.00;102709.66;4939762;29;20027;-81
2022/01/12 05:59:55;;;;;;;200.45;19.13;;;;;;;3.55;100.00;102717.75;4940278;29;20051;-81
2022/01/12 06:02:21;;;;;;;368.70;33.53;;;;;;;3.53;100.00;102694.69;4956372;28;20045;-81
2022/01/12 06:04:46;;;;;;;287.23;30.80;;;;;;;3.54;100.00;102694.47;4957332;28;20027;-81
2022/01/12 06:07:11;;;;;;;333.77;31.52;;;;;;;3.56;100.00;102689.75;4939158;29;20369;-81
2022/01/12 06:09:37;;;;;;;319.95;33.65;;;;;;;3.60;100.00;102689.38;4957165;28;20029;-80
2022/01/12 06:12:02;;;;;;;312.50;28.30;;;;;;;3.61;100.00;102693.78;4955773;28;20039;-81
2022/01/12 06:14:29;;;;;;;387.58;41.55;;;;;;;3.62;100.00;102690.06;4956391;28;20078;-81
2022/01/12 06:16:54;;;;;;;332.15;35.53;;;;;;;3.61;100.00;102674.91;4957365;28;20233;-80
2022/01/12 06:19:20;;;;;;;285.15;31.23;;;;;;;3.60;100.00;102681.28;4956001;28;20195;-80
2022/01/12 06:21:45;;;;;;;286.60;31.45;;;;;;;3.62;100.00;102692.75;4957020;28;20098;-80
2022/01/12 06:24:11;;;;;;;415.92;42.50;;;;;;;3.63;100.00;102691.72;4939128;29;20527;-80
2022/01/12 06:26:37;;;;;;;293.85;27.38;;;;;;;3.65;100.00;102703.16;4956078;28;20023;-80
2022/01/12 06:31:38;;;;;;;299.60;26.85;;;;;;;3.66;100.00;102694.91;4940729;28;20019;-81
2022/01/12 06:34:03;;;;;;;337.05;32.90;;;;;;;3.67;100.00;102682.25;4956010;28;20751;-81
2022/01/12 06:36:29;;;;;;;396.50;40.50;;;;;;;3.65;100.00;102681.59;4956546;28;20026;-81
2022/01/12 06:38:55;;;;;;;463.02;44.00;;;;;;;3.65;100.00;102685.13;4955835;29;20440;-81
2022/01/12 06:41:20;;;;;;;325.33;30.85;;;;;;;3.64;100.00;102674.53;4955670;28;20035;-81
2022/01/12 06:43:46;;;;;;;346.55;31.50;;;;;;;3.63;100.00;102689.03;4903798;29;20036;-81
2022/01/12 06:46:13;;;;;;;357.65;35.47;;;;;;;3.61;100.00;102675.72;4930757;29;20027;-81
2022/01/12 06:48:39;;;;;;;392.08;42.78;;;;;;;3.59;100.00;102679.63;4938518;29;20039;-81
2022/01/12 06:51:04;;;;;;;403.25;41.67;;;;;;;3.58;100.00;102672.56;4923732;29;20034;-81
2022/01/12 06:53:30;;;;;;;469.08;44.72;;;;;;;3.58;100.00;102664.47;4955336;28;20050;-81
2022/01/12 06:55:55;;;;;;;359.13;38.78;;;;;;;3.58;100.00;102665.31;4923754;29;20507;-81
2022/01/12 06:58:21;;;;;;;209.88;22.30;;;;;;;3.59;100.00;102668.84;4955599;28;20023;-81
2022/01/12 07:00:47;;;;;;;54.38;10.13;;;;;;;3.60;100.00;102667.81;4956056;28;20051;-81
2022/01/12 07:03:12;;;;;;;47.40;7.78;;;;;;;3.59;100.00;102671.53;4915846;29;20054;-81
2022/01/12 07:05:38;;;;;;;43.70;7.95;;;;;;;3.58;100.00;102664.47;4953093;28;20465;-81
2022/01/12 07:08:04;;;;;;;26.75;6.88;;;;;;;3.57;100.00;102663.63;4938145;29;20374;-81
2022/01/12 07:10:30;;;;;;;26.55;6.35;;;;;;;3.59;100.00;102658.06;4956467;28;20031;-82
2022/01/12 07:12:55;;;;;;;29.85;6.40;;;;;;;3.61;100.00;102669.50;4955248;28;20102;-81
2022/01/12 07:15:21;;;;;;;23.70;5.28;;;;;;;3.61;100.00;102672.19;4938996;29;20078;-82
2022/01/12 07:17:49;;;;;;;36.15;8.10;;;;;;;3.60;100.00;102676.75;4954575;28;20492;-82
2022/01/12 07:20:16;;;;;;;38.83;7.25;;;;;;;3.60;100.00;102662.41;4954747;28;20035;-81
2022/01/12 07:22:44;;;;;;;33.85;6.60;;;;;;;3.60;100.00;102668.66;4937047;29;20059;-82
2022/01/12 07:25:10;;;;;;;28.90;5.88;;;;;;;3.63;100.00;102670.13;4955403;28;20038;-80
2022/01/12 07:27:35;;;;;;;28.35;6.07;;;;;;;3.66;100.00;102667.09;4937990;29;20023;-81
2022/01/12 07:30:01;;;;;;;40.60;6.70;;;;;;;3.69;100.00;102664.88;4938439;29;20023;-81
2022/01/12 07:32:27;;;;;;;46.17;6.63;;;;;;;3.71;100.00;102670.06;4956018;28;20131;-80
2022/01/12 07:34:53;;;;;;;14.02;4.28;;;;;;;3.73;100.00;102678.81;4954662;28;20119;-82
2022/01/12 07:37:18;;;;;;;22.23;4.97;;;;;;;3.73;100.00;102668.03;4938419;29;20031;-82
2022/01/12 07:39:44;;;;;;;18.38;3.70;;;;;;;3.75;100.00;102674.09;4955124;28;20027;-82
2022/01/12 07:42:09;;;;;;;30.45;5.45;;;;;;;3.75;100.00;102677.63;4954793;28;20031;-82
2022/01/12 07:44:35;;;;;;;28.10;3.95;;;;;;;3.78;100.00;102681.81;4954696;29;20038;-82
2022/01/12 07:47:01;;;;;;;26.17;5.35;;;;;;;3.82;100.00;102688.53;4954833;28;20022;-82
2022/01/12 07:49:26;;;;;;;20.77;5.63;;;;;;;3.87;100.00;102686.13;4934917;29;20035;-82
2022/01/12 07:51:52;;;;;;;31.20;7.13;;;;;;;3.92;100.00;102691.81;4955409;28;20465;-82
2022/01/12 07:54:17;;;;;;;32.13;9.38;;;;;;;3.97;100.00;102692.09;4954323;28;20027;-82
2022/01/12 07:56:42;;;;;;;24.80;6.90;;;;;;;4.00;100.00;102702.53;4955543;28;20032;-81
2022/01/12 07:59:08;;;;;;;33.72;6.93;;;;;;;4.03;100.00;102712.13;4936614;29;20027;-82
2022/01/12 08:01:33;;;;;;;26.52;7.20;;;;;;;4.04;100.00;102707.56;4955309;28;20061;-82
2022/01/12 08:03:59;;;;;;;21.80;6.03;;;;;;;4.04;100.00;102707.56;4954009;28;20023;-82
2022/01/12 08:06:24;;;;;;;33.45;7.32;;;;;;;4.05;100.00;102698.47;4955260;28;20030;-81
2022/01/12 08:08:50;;;;;;;31.58;6.57;;;;;;;4.03;100.00;102712.13;4946698;28;20050;-82
2022/01/12 08:11:15;;;;;;;35.85;7.18;;;;;;;4.01;100.00;102700.69;4952202;28;20127;-82
2022/01/12 08:13:42;;;;;;;30.10;5.97;;;;;;;3.98;100.00;102704.59;4953893;28;20090;-81
2022/01/12 08:16:08;;;;;;;23.48;6.00;;;;;;;3.97;100.00;102710.16;4954736;28;20031;-82
2022/01/12 08:18:33;;;;;;;24.48;6.82;;;;;;;3.96;100.00;102706.63;4937122;29;20038;-82
2022/01/12 08:21:01;;;;;;;35.17;7.43;;;;;;;3.96;100.00;102703.94;4954864;28;20034;-81
2022/01/12 08:23:26;;;;;;;28.20;7.45;;;;;;;3.94;100.00;102695.16;4936877;29;20114;-82
2022/01/12 08:25:51;;;;;;;42.38;9.20;;;;;;;3.93;100.00;102698.91;4936866;29;20102;-81
2022/01/12 08:28:17;;;;;;;38.50;8.48;;;;;;;3.95;100.00;102687.91;4953822;28;20093;-81
2022/01/12 08:30:42;;;;;;;25.33;7.00;;;;;;;3.96;100.00;102689.59;4953892;28;20495;-81
2022/01/12 08:33:08;;;;;;;32.13;7.35;;;;;;;3.94;100.00;102687.06;4953598;28;20042;-81
2022/01/12 08:35:34;;;;;;;39.33;7.78;;;;;;;3.95;100.00;102696.84;4937671;29;20038;-81
2022/01/12 08:37:59;;;;;;;41.25;7.72;;;;;;;3.93;100.00;102696.19;4936383;29;20066;-81
2022/01/12 08:40:25;;;;;;;36.80;8.65;;;;;;;3.92;100.00;102697.19;4953579;28;20066;-82
2022/01/12 08:42:50;;;;;;;25.60;6.03;;;;;;;3.94;100.00;102703.25;4954555;28;20499;-82
2022/01/12 08:45:17;;;;;;;34.42;7.22;;;;;;;3.96;100.00;102698.53;4953672;28;20400;-81
2022/01/12 08:47:44;;;;;;;42.35;7.68;;;;;;;4.02;100.00;102694.25;4954433;28;20023;-81
2022/01/12 08:50:11;;;;;;;41.97;8.90;;;;;;;4.05;100.00;102677.69;4936437;28;20034;-81
2022/01/12 08:52:37;;;;;;;26.95;6.13;;;;;;;4.09;100.00;102692.53;4937340;29;20029;-82
2022/01/12 08:55:03;;;;;;;25.65;6.85;;;;;;;4.13;100.00;102690.28;4936427;29;20035;-81
2022/01/12 08:57:31;;;;;;;32.78;7.72;;;;;;;4.17;100.00;102692.44;4953492;28;20517;-81
2022/01/12 08:59:57;;;;;;;42.75;7.78;;;;;;;4.16;100.00;102696.13;4953384;28;20126;-81
2022/01/12 09:02:23;;;;;;;30.80;7.85;;;;;;;4.15;100.00;102705.28;4936304;29;20035;-81
2022/01/12 09:04:48;;;;;;;32.72;6.70;;;;;;;4.16;100.00;102708.81;4936036;29;20040;-81
2022/01/12 09:07:14;;;;;;;34.05;7.03;;;;;;;4.19;100.00;102713.84;4936832;29;20366;-81
2022/01/12 09:09:39;;;;;;;41.70;9.82;;;;;;;4.20;100.00;102710.09;4953169;28;20039;-80
2022/01/12 09:12:05;;;;;;;38.90;8.13;;;;;;;4.22;100.00;102699.97;4936942;29;20030;-81
2022/01/12 09:14:31;;;;;;;51.42;10.48;;;;;;;4.23;100.00;102697.09;4953372;28;20035;-81
2022/01/12 09:16:57;;;;;;;40.03;9.13;;;;;;;4.31;100.00;102701.56;4953808;29;20481;-81
2022/01/12 09:19:23;;;;;;;33.40;7.22;;;;;;;4.34;100.00;102697.66;4936122;29;20035;-81
2022/01/12 09:21:48;;;;;;;31.17;7.00;;;;;;;4.33;100.00;102699.50;4954189;28;20034;-81
2022/01/12 09:24:14;;;;;;;46.58;8.18;;;;;;;4.32;100.00;102716.75;4913439;29;20028;-81
2022/01/12 09:26:39;;;;;;;29.63;7.68;;;;;;;4.34;100.00;102712.00;4955395;28;20031;-81
2022/01/12 09:29:05;;;;;;;43.17;9.20;;;;;;;4.36;100.00;102704.53;4957140;28;20055;-81
2022/01/12 09:31:30;;;;;;;39.17;8.23;;;;;;;4.38;100.00;102702.50;4928947;28;20039;-81
2022/01/12 09:33:56;;;;;;;51.60;9.82;;;;;;;4.41;100.00;102702.13;4952124;28;20032;-81
2022/01/12 09:36:21;;;;;;;44.05;8.10;;;;;;;4.48;100.00;102701.41;4930539;29;20087;-80
2022/01/12 09:38:47;;;;;;;33.60;7.43;;;;;;;4.54;100.00;102704.19;4930994;29;20031;-80
2022/01/12 09:41:12;;;;;;;50.47;8.18;;;;;;;4.57;100.00;102693.00;4939639;29;20034;-79
2022/01/12 09:43:39;;;;;;;34.78;7.53;;;;;;;4.57;100.00;102671.38;4955643;28;22719;-80
2022/01/12 09:46:04;;;;;;;38.38;6.72;;;;;;;4.60;100.00;102680.97;4955853;28;20370;-79
2022/01/12 09:48:33;;;;;;;38.40;7.45;;;;;;;4.64;100.00;102677.72;4936992;28;20030;-80
2022/01/12 09:51:01;;;;;;;27.35;6.88;;;;;;;4.69;100.00;102674.44;4939765;29;20035;-79
2022/01/12 09:53:31;;;;;;;47.63;8.52;;;;;;;4.74;100.00;102682.00;4938854;29;20093;-80
2022/01/12 09:55:57;;;;;;;33.20;7.05;;;;;;;4.76;100.00;102674.53;4954132;28;20452;-80
2022/01/12 09:58:22;;;;;;;41.53;6.75;;;;;;;4.80;100.00;102665.00;4964682;28;20030;-80
2022/01/12 10:00:58;;;;;;;28.58;8.02;;;;;;;4.81;100.00;102672.13;4949986;28;20055;-80
2022/01/12 10:03:23;;;;;;;40.95;7.45;;;;;;;4.83;100.00;102681.72;4908933;29;20477;-80
2022/01/12 10:05:49;;;;;;;33.40;7.32;;;;;;;4.83;100.00;102679.00;4914686;29;20074;-80
2022/01/12 10:08:15;;;;;;;32.80;7.65;;;;;;;4.85;100.00;102658.00;4924424;29;20390;-80
2022/01/12 10:10:42;;;;;;;30.42;7.70;;;;;;;4.86;100.00;102654.31;4928201;29;20035;-80
2022/01/12 10:13:23;;;;;;;37.75;5.47;;;;;;;4.90;100.00;102660.16;4922430;29;20179;-80
2022/01/12 10:15:54;;;;;;;36.97;6.70;;;;;;;4.93;100.00;102648.13;4914909;29;20027;-80
2022/01/12 10:18:22;;;;;;;41.25;6.50;;;;;;;4.92;100.00;102658.09;4954207;29;20023;-81
2022/01/12 10:20:48;;;;;;;35.08;8.05;;;;;;;4.87;100.00;102645.16;4932315;29;20038;-81
2022/01/12 10:23:15;;;;;;;44.63;8.32;;;;;;;4.86;100.00;102632.69;4919383;29;20046;-81
2022/01/12 10:25:48;;;;;;;37.75;8.13;;;;;;;4.88;100.00;102636.03;4928569;29;20042;-81
2022/01/12 10:28:21;;;;;;;48.13;9.65;;;;;;;4.90;100.00;102643.94;4935949;29;20105;-80
2022/01/12 10:30:58;;;;;;;35.70;8.20;;;;;;;4.90;100.00;102633.13;4929264;29;20031;-79
2022/01/12 10:33:25;;;;;;;31.60;7.05;;;;;;;4.90;100.00;102633.13;4942394;29;20102;-79
2022/01/12 10:35:55;;;;;;;38.13;8.38;;;;;;;4.90;100.00;102620.44;4939206;29;20111;-80
2022/01/12 10:38:22;;;;;;;32.25;7.25;;;;;;;4.90;100.00;102612.34;4948880;29;20051;-82
2022/01/12 10:40:52;;;;;;;41.90;8.52;;;;;;;4.92;100.00;102604.06;4943925;29;20023;-83
2022/01/12 10:43:36;;;;;;;43.47;7.53;;;;;;;4.92;100.00;102604.06;4939874;29;20031;-80
2022/01/12 10:46:06;;;;;;;35.15;7.10;;;;;;;4.94;100.00;102611.94;4914654;29;20031;-80
2022/01/12 10:48:38;;;;;;;36.67;7.15;;;;;;;4.95;100.00;102608.25;4944097;29;20110;-80
2022/01/12 10:51:05;;;;;;;36.05;7.15;;;;;;;4.94;100.00;102611.94;4923753;29;20039;-81
2022/01/12 10:53:33;;;;;;;41.22;7.40;;;;;;;4.95;100.00;102635.28;4925387;29;20040;-81
2022/01/12 10:56:15;;;;;;;32.67;6.53;;;;;;;4.98;100.00;102594.34;4923521;29;20421;-80
2022/01/12 10:58:48;;;;;;;32.30;7.07;;;;;;;5.02;100.00;102598.31;4924607;29;20032;-81
2022/01/12 11:01:14;;;;;;;45.25;8.43;;;;;;;5.04;100.00;102593.56;4935227;29;20131;-80
2022/01/12 11:03:40;;;;;;;41.97;7.05;;;;;;;5.06;100.00;102610.44;4935011;29;20047;-79
2022/01/12 11:06:06;;;;;;;43.35;8.57;;;;;;;5.07;100.00;102601.28;4921203;29;20122;-79
2022/01/12 11:08:32;;;;;;;45.60;7.68;;;;;;;5.12;100.00;102593.44;4945072;29;20019;-80
2022/01/12 11:10:58;;;;;;;42.10;6.40;;;;;;;5.17;100.00;102609.91;4917053;29;20031;-80
2022/01/12 11:13:24;;;;;;;41.20;7.75;;;;;;;5.22;100.00;102615.59;4932695;29;20078;-80
2022/01/12 11:15:50;;;;;;;40.47;8.77;;;;;;;5.26;100.00;102594.41;4922790;29;20039;-79
2022/01/12 11:18:17;;;;;;;42.80;8.80;;;;;;;5.31;100.00;102573.84;4918783;29;20015;-80
2022/01/12 11:20:43;;;;;;;42.50;7.78;;;;;;;5.36;100.00;102567.03;4933396;29;20037;-79
2022/01/12 11:23:13;;;;;;;41.00;8.82;;;;;;;5.40;100.00;102579.97;4910137;29;20466;-79
2022/01/12 11:25:40;;;;;;;47.70;7.60;;;;;;;5.47;100.00;102582.72;4935273;29;20193;-79
2022/01/12 11:28:09;;;;;;;39.65;6.85;;;;;;;5.57;100.00;102583.25;4918817;29;20024;-79
2022/01/12 11:30:35;;;;;;;38.88;8.20;;;;;;;5.71;100.00;102595.00;4948938;29;20070;-79
2022/01/12 11:33:03;;;;;;;31.38;7.82;;;;;;;5.78;100.00;102598.56;4948933;29;20032;-80
2022/01/12 11:35:32;;;;;;;49.03;9.70;;;;;;;5.78;100.00;102594.00;4947146;29;20043;-79
2022/01/12 11:37:59;;;;;;;45.35;7.53;;;;;;;5.79;100.00;102611.09;4913132;29;20059;-79
2022/01/12 11:40:55;;;;;;;44.63;7.13;;;;;;;5.75;100.00;102616.03;4891578;29;20023;-82
2022/01/12 11:43:28;;;;;;;36.78;7.03;;;;;;;5.72;100.00;102619.13;4928888;29;20066;-83
2022/01/12 11:46:24;;;;;;;44.35;7.00;;;;;;;5.65;100.00;102620.16;4937416;29;20035;-91
2022/01/12 11:48:53;;;;;;;28.60;6.55;;;;;;;5.63;100.00;102617.63;4918573;29;20042;-89
2022/01/12 11:51:42;;;;;;;43.45;7.03;;;;;;;5.65;100.00;102609.31;4924573;29;20433;-92
2022/01/12 11:54:12;;;;;;;58.78;9.38;;;;;;;5.67;100.00;102618.88;4941838;29;20034;-93
2022/01/12 11:56:49;;;;;;;36.88;6.10;;;;;;;5.70;100.00;102613.09;4918445;29;20040;-88
2022/01/12 11:59:15;;;;;;;37.38;6.68;;;;;;;5.77;100.00;102616.69;4918847;29;20035;-86
2022/01/12 12:01:51;;;;;;;34.88;6.43;;;;;;;5.85;100.00;102620.28;4955938;28;20401;-88
2022/01/12 12:04:25;;;;;;;34.33;6.72;;;;;;;5.90;100.00;102623.25;4966614;28;20421;-87
2022/01/12 12:07:01;;;;;;;35.17;5.50;;;;;;;5.92;100.00;102611.19;4956141;28;20145;-86
2022/01/12 12:09:35;;;;;;;39.55;6.30;;;;;;;5.92;100.00;102583.25;4953860;28;20042;-86
2022/01/12 12:12:00;;;;;;;32.28;6.93;;;;;;;5.92;100.00;102588.66;4954568;28;20117;-86
2022/01/12 12:14:25;;;;;;;41.58;7.80;;;;;;;5.90;100.00;102574.50;4937964;28;20031;-84
2022/01/12 12:16:51;;;;;;;33.45;6.28;;;;;;;5.87;100.00;102566.78;4973211;28;20023;-86
2022/01/12 12:19:17;;;;;;;35.08;7.97;;;;;;;5.81;100.00;102560.31;4943057;29;20512;-86
2022/01/12 12:21:46;;;;;;;43.63;7.97;;;;;;;5.79;100.00;102546.13;4970928;28;20085;-86
2022/01/12 12:24:12;;;;;;;44.92;7.22;;;;;;;5.81;100.00;102548.63;4937970;29;20051;-86
2022/01/12 12:26:50;;;;;;;41.00;7.50;;;;;;;5.81;100.00;102532.38;4949538;28;20022;-87
2022/01/12 12:29:17;;;;;;;35.53;6.63;;;;;;;5.79;100.00;102535.31;4925307;29;20485;-87
2022/01/12 12:31:45;;;;;;;33.28;6.68;;;;;;;5.77;100.00;102527.38;4942866;28;20038;-83
2022/01/12 12:34:12;;;;;;;44.80;8.60;;;;;;;5.75;100.00;102515.91;4943345;28;20118;-84
2022/01/12 12:36:38;;;;;;;36.28;5.85;;;;;;;5.77;100.00;102510.28;4951336;28;20440;-84
2022/01/12 12:39:12;;;;;;;25.60;5.68;;;;;;;5.82;100.00;102497.00;4953768;28;20026;-83
2022/01/12 12:41:39;;;;;;;33.45;5.82;;;;;;;5.84;100.00;102499.50;4964883;28;20031;-84
2022/01/12 12:44:05;;;;;;;35.42;6.00;;;;;;;5.86;100.00;102497.44;4946168;28;20396;-83